Main page
METAR-TAF:

METAR-TAF

Airports :

Weeze Airport

Weeze, Germany

latitude: 51-36-09N, longitude: 006-08-32E, elevation: 32 m

Current weather observation

The report was made 3 hours and 10 minutes ago, at 21:50 UTC
Wind 3 kt from variable directions
Temperature 18°C
Humidity 45%
Pressure 1019 hPa
Visibility 10 km or more
no clouds below 1500 m and no cumulonimbus

METAR: EDLV 202150Z VRB03KT CAVOK 18/06 Q1019

Time: 03:00 (01:00 UTC)

Forecast

The report was made 8 hours and 0 minutes ago, at 17:00 UTC
Forecast valid from 20 at 18 UTC to 21 at 18 UTC
Wind 5 kt from the Northeast
Visibility 10 km or more
no clouds below 1500 m and no cumulonimbus
Becoming
from 21 at 07 UTC to 21 at 10 UTC
Wind 10 kt from the East
Becoming
from 21 at 16 UTC to 21 at 18 UTC
Wind 3 kt from variable directions

TAF: EDLV 201700Z 2018/2118 05005KT CAVOK BECMG 2107/2110 08010KT BECMG 2116/2118 VRB03KT

Weather observations and forecasts of more than 4000 airports (METAR and TAF reports).

The available stations are represented by yellow and red dots on the map.

Hover mouse over dot to see the name of the station.

Then click to see weather observations and forecasts.

To change the map : click on the green buttons with a black cross to zoom in, on the green button with a dash to zoom out, or on the green arrows for adjacent maps.


METAR-TAF: